Cibolo, Texas
Current Conditions -  °F | °C
As of 12:58 AM on Wednesday 22 Oct 2014 (Local Time) from KRND Reporting Station
Scattered Clouds Scattered Clouds  
Wind Chill: 65°   Ceiling: Unl
Heat Index: 65°   Visibility: 10mi
Dew Point: 48°   Wind: 2mph
Humidity: 54%   Direction: 30°NNE
Pressure: 30.05"   Gusts: NA
Location:  29.56°N, 98.23°W
Report Text: KRND 220558Z AUTO 03002KT 10SM SCT230 19/09 A3005 RMK AO2 SLP170 T01850089 10238 20182 402860153 52005
Loading
Personal Weather Stations






























Interactive Weather Map
Tropical Storm Tracking
New forecast layout! Learn more

10-Day Weather Forecast

Advertisements
Track Severe Weather on mobile